sensor_id;sensor_type;location;lat;lon;timestamp;P1;durP1;ratioP1;P2;durP2;ratioP2
31728;SDS011;18309;43.658;1.312;2023-02-21T00:02:29;21.98;;;7.32;;
31728;SDS011;18309;43.658;1.312;2023-02-21T00:05:13;11.48;;;5.43;;
31728;SDS011;18309;43.658;1.312;2023-02-21T00:07:57;17.13;;;5.28;;
31728;SDS011;18309;43.658;1.312;2023-02-21T00:10:42;13.68;;;5.32;;
31728;SDS011;18309;43.658;1.312;2023-02-21T00:13:26;14.80;;;5.95;;
31728;SDS011;18309;43.658;1.312;2023-02-21T00:16:14;15.48;;;6.47;;
31728;SDS011;18309;43.658;1.312;2023-02-21T00:18:59;13.88;;;5.90;;
31728;SDS011;18309;43.658;1.312;2023-02-21T00:21:43;14.00;;;5.43;;
31728;SDS011;18309;43.658;1.312;2023-02-21T00:24:27;14.27;;;5.40;;
31728;SDS011;18309;43.658;1.312;2023-02-21T00:27:12;11.73;;;5.28;;
31728;SDS011;18309;43.658;1.312;2023-02-21T00:29:56;12.63;;;5.85;;
31728;SDS011;18309;43.658;1.312;2023-02-21T00:32:40;15.65;;;6.03;;
31728;SDS011;18309;43.658;1.312;2023-02-21T00:35:24;19.23;;;7.45;;
31728;SDS011;18309;43.658;1.312;2023-02-21T00:38:09;16.05;;;6.75;;
31728;SDS011;18309;43.658;1.312;2023-02-21T00:40:53;12.65;;;6.40;;
31728;SDS011;18309;43.658;1.312;2023-02-21T00:43:37;11.10;;;5.60;;
31728;SDS011;18309;43.658;1.312;2023-02-21T00:46:22;14.82;;;6.65;;
31728;SDS011;18309;43.658;1.312;2023-02-21T00:49:06;15.68;;;7.70;;
31728;SDS011;18309;43.658;1.312;2023-02-21T00:51:51;14.45;;;6.95;;
31728;SDS011;18309;43.658;1.312;2023-02-21T00:54:35;21.88;;;7.93;;
31728;SDS011;18309;43.658;1.312;2023-02-21T00:57:20;17.48;;;7.95;;
31728;SDS011;18309;43.658;1.312;2023-02-21T01:00:05;15.80;;;7.68;;
31728;SDS011;18309;43.658;1.312;2023-02-21T01:02:51;16.02;;;8.30;;
31728;SDS011;18309;43.658;1.312;2023-02-21T01:05:35;19.00;;;8.73;;
31728;SDS011;18309;43.658;1.312;2023-02-21T01:08:19;20.20;;;9.63;;
31728;SDS011;18309;43.658;1.312;2023-02-21T01:11:03;22.77;;;10.48;;
31728;SDS011;18309;43.658;1.312;2023-02-21T01:13:48;16.48;;;9.40;;
31728;SDS011;18309;43.658;1.312;2023-02-21T01:16:32;19.85;;;10.25;;
31728;SDS011;18309;43.658;1.312;2023-02-21T01:19:17;17.10;;;10.45;;
31728;SDS011;18309;43.658;1.312;2023-02-21T01:22:02;22.88;;;10.18;;
31728;SDS011;18309;43.658;1.312;2023-02-21T01:24:50;22.35;;;11.45;;
31728;SDS011;18309;43.658;1.312;2023-02-21T01:27:34;19.55;;;9.90;;
31728;SDS011;18309;43.658;1.312;2023-02-21T01:30:19;18.05;;;10.23;;
31728;SDS011;18309;43.658;1.312;2023-02-21T01:33:04;18.58;;;11.05;;
31728;SDS011;18309;43.658;1.312;2023-02-21T01:35:48;20.60;;;12.15;;
31728;SDS011;18309;43.658;1.312;2023-02-21T01:38:33;22.77;;;11.82;;
31728;SDS011;18309;43.658;1.312;2023-02-21T01:41:17;25.10;;;13.77;;
31728;SDS011;18309;43.658;1.312;2023-02-21T01:44:02;25.27;;;12.85;;
31728;SDS011;18309;43.658;1.312;2023-02-21T01:46:49;26.15;;;13.95;;
31728;SDS011;18309;43.658;1.312;2023-02-21T01:49:37;27.33;;;13.32;;
31728;SDS011;18309;43.658;1.312;2023-02-21T01:52:23;19.73;;;12.90;;
31728;SDS011;18309;43.658;1.312;2023-02-21T01:55:08;29.23;;;14.95;;
31728;SDS011;18309;43.658;1.312;2023-02-21T01:57:53;33.80;;;15.25;;
31728;SDS011;18309;43.658;1.312;2023-02-21T02:00:38;26.42;;;14.75;;
31728;SDS011;18309;43.658;1.312;2023-02-21T02:03:23;28.00;;;14.45;;
31728;SDS011;18309;43.658;1.312;2023-02-21T02:06:08;29.25;;;15.20;;
31728;SDS011;18309;43.658;1.312;2023-02-21T02:08:57;31.55;;;15.02;;
31728;SDS011;18309;43.658;1.312;2023-02-21T02:17:35;29.20;;;15.45;;
31728;SDS011;18309;43.658;1.312;2023-02-21T02:36:56;25.30;;;14.52;;
31728;SDS011;18309;43.658;1.312;2023-02-21T02:44:39;30.80;;;15.57;;
31728;SDS011;18309;43.658;1.312;2023-02-21T02:47:07;28.95;;;13.98;;
31728;SDS011;18309;43.658;1.312;2023-02-21T02:49:40;28.80;;;14.35;;
31728;SDS011;18309;43.658;1.312;2023-02-21T02:52:07;28.30;;;14.02;;
31728;SDS011;18309;43.658;1.312;2023-02-21T02:54:34;27.85;;;13.63;;
31728;SDS011;18309;43.658;1.312;2023-02-21T02:57:00;29.73;;;14.55;;
31728;SDS011;18309;43.658;1.312;2023-02-21T02:59:34;23.20;;;13.73;;
31728;SDS011;18309;43.658;1.312;2023-02-21T03:02:12;29.25;;;13.95;;
31728;SDS011;18309;43.658;1.312;2023-02-21T03:05:04;25.20;;;13.38;;
31728;SDS011;18309;43.658;1.312;2023-02-21T03:08:24;22.52;;;13.10;;
31728;SDS011;18309;43.658;1.312;2023-02-21T03:11:17;32.25;;;13.93;;
31728;SDS011;18309;43.658;1.312;2023-02-21T03:19:32;28.17;;;13.48;;
31728;SDS011;18309;43.658;1.312;2023-02-21T03:21:56;27.52;;;13.60;;
31728;SDS011;18309;43.658;1.312;2023-02-21T03:24:26;28.67;;;14.35;;
31728;SDS011;18309;43.658;1.312;2023-02-21T03:26:55;20.23;;;12.98;;
31728;SDS011;18309;43.658;1.312;2023-02-21T03:29:24;28.83;;;13.93;;
31728;SDS011;18309;43.658;1.312;2023-02-21T03:31:54;26.95;;;14.02;;
31728;SDS011;18309;43.658;1.312;2023-02-21T03:34:24;28.48;;;13.02;;
31728;SDS011;18309;43.658;1.312;2023-02-21T03:36:50;24.98;;;14.18;;
31728;SDS011;18309;43.658;1.312;2023-02-21T03:39:16;24.85;;;13.30;;
31728;SDS011;18309;43.658;1.312;2023-02-21T03:41:41;25.63;;;13.15;;
31728;SDS011;18309;43.658;1.312;2023-02-21T03:44:07;24.58;;;13.30;;
31728;SDS011;18309;43.658;1.312;2023-02-21T03:46:33;26.10;;;13.65;;
31728;SDS011;18309;43.658;1.312;2023-02-21T03:48:58;25.00;;;13.65;;
31728;SDS011;18309;43.658;1.312;2023-02-21T03:51:24;22.60;;;11.90;;
31728;SDS011;18309;43.658;1.312;2023-02-21T03:53:50;25.67;;;12.95;;
31728;SDS011;18309;43.658;1.312;2023-02-21T03:56:15;23.65;;;12.63;;
31728;SDS011;18309;43.658;1.312;2023-02-21T03:58:41;24.85;;;12.75;;
31728;SDS011;18309;43.658;1.312;2023-02-21T04:01:07;23.58;;;13.15;;
31728;SDS011;18309;43.658;1.312;2023-02-21T04:03:32;28.80;;;13.15;;
31728;SDS011;18309;43.658;1.312;2023-02-21T04:05:58;26.20;;;13.18;;
31728;SDS011;18309;43.658;1.312;2023-02-21T04:08:24;25.92;;;12.55;;
31728;SDS011;18309;43.658;1.312;2023-02-21T04:10:49;26.30;;;12.95;;
31728;SDS011;18309;43.658;1.312;2023-02-21T04:13:15;23.75;;;12.98;;
31728;SDS011;18309;43.658;1.312;2023-02-21T04:15:41;25.35;;;11.55;;
31728;SDS011;18309;43.658;1.312;2023-02-21T04:18:06;26.50;;;12.77;;
31728;SDS011;18309;43.658;1.312;2023-02-21T04:20:32;25.92;;;12.13;;
31728;SDS011;18309;43.658;1.312;2023-02-21T04:22:58;27.70;;;13.38;;
31728;SDS011;18309;43.658;1.312;2023-02-21T04:25:23;21.63;;;12.10;;
31728;SDS011;18309;43.658;1.312;2023-02-21T04:27:49;28.75;;;13.40;;
31728;SDS011;18309;43.658;1.312;2023-02-21T04:30:15;22.98;;;12.50;;
31728;SDS011;18309;43.658;1.312;2023-02-21T04:32:40;24.00;;;12.20;;
31728;SDS011;18309;43.658;1.312;2023-02-21T04:35:06;20.48;;;11.20;;
31728;SDS011;18309;43.658;1.312;2023-02-21T04:37:32;25.60;;;12.77;;
31728;SDS011;18309;43.658;1.312;2023-02-21T04:39:58;21.45;;;12.55;;
31728;SDS011;18309;43.658;1.312;2023-02-21T04:42:23;22.63;;;11.95;;
31728;SDS011;18309;43.658;1.312;2023-02-21T04:44:49;20.75;;;12.70;;
31728;SDS011;18309;43.658;1.312;2023-02-21T04:47:15;26.60;;;13.10;;
31728;SDS011;18309;43.658;1.312;2023-02-21T04:49:40;26.17;;;12.82;;
31728;SDS011;18309;43.658;1.312;2023-02-21T04:52:06;25.85;;;13.05;;
31728;SDS011;18309;43.658;1.312;2023-02-21T04:54:32;27.13;;;12.40;;
31728;SDS011;18309;43.658;1.312;2023-02-21T04:56:57;41.47;;;15.32;;
31728;SDS011;18309;43.658;1.312;2023-02-21T04:59:23;25.20;;;11.50;;
31728;SDS011;18309;43.658;1.312;2023-02-21T05:01:49;25.98;;;13.07;;
31728;SDS011;18309;43.658;1.312;2023-02-21T05:04:14;27.45;;;12.20;;
31728;SDS011;18309;43.658;1.312;2023-02-21T05:06:40;25.27;;;12.63;;
31728;SDS011;18309;43.658;1.312;2023-02-21T05:09:06;27.33;;;12.25;;
31728;SDS011;18309;43.658;1.312;2023-02-21T05:11:32;28.45;;;13.38;;
31728;SDS011;18309;43.658;1.312;2023-02-21T05:13:59;29.60;;;12.43;;
31728;SDS011;18309;43.658;1.312;2023-02-21T05:16:25;30.38;;;12.30;;
31728;SDS011;18309;43.658;1.312;2023-02-21T05:18:50;29.70;;;13.05;;
31728;SDS011;18309;43.658;1.312;2023-02-21T05:21:17;33.90;;;13.30;;
31728;SDS011;18309;43.658;1.312;2023-02-21T05:23:43;27.77;;;13.05;;
31728;SDS011;18309;43.658;1.312;2023-02-21T05:26:20;27.42;;;13.57;;
31728;SDS011;18309;43.658;1.312;2023-02-21T05:28:48;23.73;;;13.27;;
31728;SDS011;18309;43.658;1.312;2023-02-21T05:31:14;27.88;;;12.50;;
31728;SDS011;18309;43.658;1.312;2023-02-21T05:33:40;29.13;;;14.73;;
31728;SDS011;18309;43.658;1.312;2023-02-21T05:36:05;24.17;;;12.82;;
31728;SDS011;18309;43.658;1.312;2023-02-21T05:38:31;25.10;;;12.80;;
31728;SDS011;18309;43.658;1.312;2023-02-21T05:40:57;29.10;;;12.27;;
31728;SDS011;18309;43.658;1.312;2023-02-21T05:43:23;25.55;;;12.82;;
31728;SDS011;18309;43.658;1.312;2023-02-21T05:45:49;29.42;;;14.05;;
31728;SDS011;18309;43.658;1.312;2023-02-21T05:48:15;26.60;;;12.32;;
31728;SDS011;18309;43.658;1.312;2023-02-21T05:50:40;28.75;;;14.00;;
31728;SDS011;18309;43.658;1.312;2023-02-21T05:53:06;28.60;;;12.35;;
31728;SDS011;18309;43.658;1.312;2023-02-21T05:55:34;25.63;;;13.00;;
31728;SDS011;18309;43.658;1.312;2023-02-21T05:58:00;24.30;;;11.82;;
31728;SDS011;18309;43.658;1.312;2023-02-21T06:00:26;21.67;;;12.25;;
31728;SDS011;18309;43.658;1.312;2023-02-21T06:02:54;28.45;;;13.05;;
31728;SDS011;18309;43.658;1.312;2023-02-21T06:05:21;23.50;;;12.07;;
31728;SDS011;18309;43.658;1.312;2023-02-21T06:07:47;25.15;;;11.95;;
31728;SDS011;18309;43.658;1.312;2023-02-21T06:10:13;26.08;;;12.45;;
31728;SDS011;18309;43.658;1.312;2023-02-21T06:12:41;29.10;;;13.05;;
31728;SDS011;18309;43.658;1.312;2023-02-21T06:15:08;25.92;;;12.68;;
31728;SDS011;18309;43.658;1.312;2023-02-21T06:17:40;26.63;;;12.75;;
31728;SDS011;18309;43.658;1.312;2023-02-21T06:20:07;22.63;;;12.02;;
31728;SDS011;18309;43.658;1.312;2023-02-21T06:22:36;22.98;;;12.73;;
31728;SDS011;18309;43.658;1.312;2023-02-21T06:25:02;27.13;;;12.77;;
31728;SDS011;18309;43.658;1.312;2023-02-21T06:27:27;24.80;;;13.43;;
31728;SDS011;18309;43.658;1.312;2023-02-21T06:29:53;24.15;;;12.23;;
31728;SDS011;18309;43.658;1.312;2023-02-21T06:32:19;27.80;;;13.52;;
31728;SDS011;18309;43.658;1.312;2023-02-21T06:34:45;24.73;;;12.82;;
31728;SDS011;18309;43.658;1.312;2023-02-21T06:37:10;25.77;;;12.52;;
31728;SDS011;18309;43.658;1.312;2023-02-21T06:39:39;32.35;;;13.48;;
31728;SDS011;18309;43.658;1.312;2023-02-21T06:42:04;25.35;;;14.05;;
31728;SDS011;18309;43.658;1.312;2023-02-21T06:44:30;23.75;;;12.55;;
31728;SDS011;18309;43.658;1.312;2023-02-21T06:46:56;26.98;;;13.65;;
31728;SDS011;18309;43.658;1.312;2023-02-21T06:49:22;24.85;;;12.45;;
31728;SDS011;18309;43.658;1.312;2023-02-21T06:51:47;32.25;;;12.20;;
31728;SDS011;18309;43.658;1.312;2023-02-21T06:54:13;24.33;;;11.63;;
31728;SDS011;18309;43.658;1.312;2023-02-21T06:56:41;25.48;;;13.10;;
31728;SDS011;18309;43.658;1.312;2023-02-21T06:59:06;25.25;;;12.30;;
31728;SDS011;18309;43.658;1.312;2023-02-21T07:01:33;22.13;;;11.57;;
31728;SDS011;18309;43.658;1.312;2023-02-21T07:03:58;22.83;;;11.73;;
31728;SDS011;18309;43.658;1.312;2023-02-21T07:06:24;24.77;;;13.20;;
31728;SDS011;18309;43.658;1.312;2023-02-21T07:08:50;30.83;;;12.95;;
31728;SDS011;18309;43.658;1.312;2023-02-21T07:11:16;25.70;;;11.50;;
31728;SDS011;18309;43.658;1.312;2023-02-21T07:13:48;22.25;;;11.15;;
31728;SDS011;18309;43.658;1.312;2023-02-21T07:16:15;21.25;;;11.25;;
31728;SDS011;18309;43.658;1.312;2023-02-21T07:18:42;21.25;;;12.20;;
31728;SDS011;18309;43.658;1.312;2023-02-21T07:21:09;24.10;;;12.30;;
31728;SDS011;18309;43.658;1.312;2023-02-21T07:23:35;26.42;;;11.60;;
31728;SDS011;18309;43.658;1.312;2023-02-21T07:26:01;28.60;;;12.65;;
31728;SDS011;18309;43.658;1.312;2023-02-21T07:28:26;23.17;;;12.88;;
31728;SDS011;18309;43.658;1.312;2023-02-21T07:30:52;22.08;;;12.57;;
31728;SDS011;18309;43.658;1.312;2023-02-21T07:33:18;29.15;;;13.73;;
31728;SDS011;18309;43.658;1.312;2023-02-21T07:35:43;28.55;;;12.93;;
31728;SDS011;18309;43.658;1.312;2023-02-21T07:38:18;29.00;;;14.00;;
31728;SDS011;18309;43.658;1.312;2023-02-21T07:43:24;31.38;;;14.90;;
31728;SDS011;18309;43.658;1.312;2023-02-21T07:45:51;24.67;;;12.73;;
31728;SDS011;18309;43.658;1.312;2023-02-21T07:48:17;23.65;;;13.05;;
31728;SDS011;18309;43.658;1.312;2023-02-21T07:50:43;28.42;;;13.65;;
31728;SDS011;18309;43.658;1.312;2023-02-21T07:53:10;23.50;;;13.13;;
31728;SDS011;18309;43.658;1.312;2023-02-21T07:55:36;24.20;;;13.38;;
31728;SDS011;18309;43.658;1.312;2023-02-21T07:58:02;24.98;;;14.30;;
31728;SDS011;18309;43.658;1.312;2023-02-21T08:00:28;25.35;;;13.20;;
31728;SDS011;18309;43.658;1.312;2023-02-21T08:02:54;27.70;;;13.38;;
31728;SDS011;18309;43.658;1.312;2023-02-21T08:05:20;24.33;;;13.90;;
31728;SDS011;18309;43.658;1.312;2023-02-21T08:07:46;24.85;;;13.77;;
31728;SDS011;18309;43.658;1.312;2023-02-21T08:10:13;27.88;;;12.38;;
31728;SDS011;18309;43.658;1.312;2023-02-21T08:12:44;23.70;;;13.43;;
31728;SDS011;18309;43.658;1.312;2023-02-21T08:15:09;26.48;;;13.23;;
31728;SDS011;18309;43.658;1.312;2023-02-21T08:17:35;26.92;;;12.80;;
31728;SDS011;18309;43.658;1.312;2023-02-21T08:20:02;28.02;;;12.77;;
31728;SDS011;18309;43.658;1.312;2023-02-21T08:22:30;25.55;;;13.55;;
31728;SDS011;18309;43.658;1.312;2023-02-21T08:24:55;28.02;;;13.50;;
31728;SDS011;18309;43.658;1.312;2023-02-21T08:27:21;26.50;;;13.77;;
31728;SDS011;18309;43.658;1.312;2023-02-21T08:29:50;24.00;;;12.20;;
31728;SDS011;18309;43.658;1.312;2023-02-21T08:32:17;27.10;;;13.07;;
31728;SDS011;18309;43.658;1.312;2023-02-21T08:34:44;21.48;;;12.10;;
31728;SDS011;18309;43.658;1.312;2023-02-21T08:37:13;27.15;;;12.65;;
31728;SDS011;18309;43.658;1.312;2023-02-21T08:39:47;25.77;;;13.38;;
31728;SDS011;18309;43.658;1.312;2023-02-21T08:42:16;26.63;;;12.77;;
31728;SDS011;18309;43.658;1.312;2023-02-21T08:44:45;26.60;;;12.10;;
31728;SDS011;18309;43.658;1.312;2023-02-21T08:47:11;31.83;;;12.02;;
31728;SDS011;18309;43.658;1.312;2023-02-21T08:49:38;25.83;;;11.60;;
31728;SDS011;18309;43.658;1.312;2023-02-21T08:52:08;28.38;;;12.18;;
31728;SDS011;18309;43.658;1.312;2023-02-21T08:54:33;24.80;;;11.27;;
31728;SDS011;18309;43.658;1.312;2023-02-21T08:56:59;23.58;;;11.50;;
31728;SDS011;18309;43.658;1.312;2023-02-21T08:59:25;25.38;;;11.10;;
31728;SDS011;18309;43.658;1.312;2023-02-21T09:01:52;31.77;;;11.10;;
31728;SDS011;18309;43.658;1.312;2023-02-21T09:04:18;28.17;;;11.25;;
31728;SDS011;18309;43.658;1.312;2023-02-21T09:06:44;30.58;;;10.30;;
31728;SDS011;18309;43.658;1.312;2023-02-21T09:09:10;23.20;;;10.65;;
31728;SDS011;18309;43.658;1.312;2023-02-21T09:11:35;27.13;;;10.30;;
31728;SDS011;18309;43.658;1.312;2023-02-21T09:14:01;22.80;;;10.60;;
31728;SDS011;18309;43.658;1.312;2023-02-21T09:16:30;27.85;;;10.07;;
31728;SDS011;18309;43.658;1.312;2023-02-21T09:18:56;24.58;;;10.10;;
31728;SDS011;18309;43.658;1.312;2023-02-21T09:21:25;19.63;;;10.18;;
31728;SDS011;18309;43.658;1.312;2023-02-21T09:23:54;20.52;;;9.68;;
31728;SDS011;18309;43.658;1.312;2023-02-21T09:26:20;22.88;;;9.90;;
31728;SDS011;18309;43.658;1.312;2023-02-21T09:28:48;15.55;;;9.27;;
31728;SDS011;18309;43.658;1.312;2023-02-21T09:31:15;20.85;;;10.55;;
31728;SDS011;18309;43.658;1.312;2023-02-21T09:33:41;24.63;;;9.75;;
31728;SDS011;18309;43.658;1.312;2023-02-21T09:36:07;21.67;;;10.00;;
31728;SDS011;18309;43.658;1.312;2023-02-21T09:38:33;22.80;;;9.65;;
31728;SDS011;18309;43.658;1.312;2023-02-21T09:41:00;22.83;;;11.23;;
31728;SDS011;18309;43.658;1.312;2023-02-21T09:46:01;22.25;;;9.65;;
31728;SDS011;18309;43.658;1.312;2023-02-21T09:48:39;18.25;;;9.23;;
31728;SDS011;18309;43.658;1.312;2023-02-21T09:51:08;19.90;;;9.32;;
31728;SDS011;18309;43.658;1.312;2023-02-21T09:53:37;21.40;;;9.90;;
31728;SDS011;18309;43.658;1.312;2023-02-21T09:56:07;20.90;;;9.05;;
31728;SDS011;18309;43.658;1.312;2023-02-21T09:58:45;25.40;;;9.85;;
31728;SDS011;18309;43.658;1.312;2023-02-21T10:04:27;18.55;;;8.35;;
31728;SDS011;18309;43.658;1.312;2023-02-21T10:07:23;21.40;;;8.68;;
31728;SDS011;18309;43.658;1.312;2023-02-21T10:10:05;20.90;;;9.57;;
31728;SDS011;18309;43.658;1.312;2023-02-21T10:18:03;18.48;;;7.85;;
31728;SDS011;18309;43.658;1.312;2023-02-21T10:20:43;21.47;;;9.10;;
31728;SDS011;18309;43.658;1.312;2023-02-21T10:23:17;21.67;;;8.70;;
31728;SDS011;18309;43.658;1.312;2023-02-21T10:25:50;34.00;;;10.18;;
31728;SDS011;18309;43.658;1.312;2023-02-21T10:28:21;20.55;;;8.63;;
31728;SDS011;18309;43.658;1.312;2023-02-21T10:30:48;22.83;;;9.40;;
31728;SDS011;18309;43.658;1.312;2023-02-21T10:33:17;18.33;;;8.27;;
31728;SDS011;18309;43.658;1.312;2023-02-21T10:35:43;21.30;;;9.00;;
31728;SDS011;18309;43.658;1.312;2023-02-21T10:38:09;31.83;;;9.65;;
31728;SDS011;18309;43.658;1.312;2023-02-21T10:40:39;23.65;;;9.40;;
31728;SDS011;18309;43.658;1.312;2023-02-21T10:43:18;14.93;;;8.07;;
31728;SDS011;18309;43.658;1.312;2023-02-21T10:48:50;22.23;;;8.50;;
31728;SDS011;18309;43.658;1.312;2023-02-21T10:51:30;24.50;;;9.15;;
31728;SDS011;18309;43.658;1.312;2023-02-21T10:54:19;20.25;;;8.80;;
31728;SDS011;18309;43.658;1.312;2023-02-21T10:56:48;18.38;;;8.00;;
31728;SDS011;18309;43.658;1.312;2023-02-21T10:59:21;21.48;;;8.75;;
31728;SDS011;18309;43.658;1.312;2023-02-21T11:01:51;25.13;;;9.10;;
31728;SDS011;18309;43.658;1.312;2023-02-21T11:06:44;22.15;;;8.50;;
31728;SDS011;18309;43.658;1.312;2023-02-21T11:12:03;15.15;;;9.15;;
31728;SDS011;18309;43.658;1.312;2023-02-21T11:17:23;19.40;;;8.73;;
31728;SDS011;18309;43.658;1.312;2023-02-21T11:20:23;17.83;;;7.82;;
31728;SDS011;18309;43.658;1.312;2023-02-21T11:22:47;23.02;;;9.57;;
31728;SDS011;18309;43.658;1.312;2023-02-21T11:25:19;17.67;;;8.30;;
31728;SDS011;18309;43.658;1.312;2023-02-21T11:30:35;20.42;;;8.43;;
31728;SDS011;18309;43.658;1.312;2023-02-21T11:33:02;17.83;;;8.90;;
31728;SDS011;18309;43.658;1.312;2023-02-21T11:38:07;13.10;;;7.70;;
31728;SDS011;18309;43.658;1.312;2023-02-21T11:40:52;18.13;;;9.38;;
31728;SDS011;18309;43.658;1.312;2023-02-21T11:48:38;17.27;;;8.30;;
31728;SDS011;18309;43.658;1.312;2023-02-21T11:51:22;19.85;;;9.25;;
31728;SDS011;18309;43.658;1.312;2023-02-21T11:53:50;20.20;;;9.48;;
31728;SDS011;18309;43.658;1.312;2023-02-21T11:56:23;16.98;;;8.50;;
31728;SDS011;18309;43.658;1.312;2023-02-21T12:01:32;26.33;;;9.73;;
31728;SDS011;18309;43.658;1.312;2023-02-21T12:09:37;19.52;;;8.88;;
31728;SDS011;18309;43.658;1.312;2023-02-21T12:17:47;16.33;;;6.95;;
31728;SDS011;18309;43.658;1.312;2023-02-21T12:20:28;19.83;;;7.43;;
31728;SDS011;18309;43.658;1.312;2023-02-21T12:23:31;15.77;;;6.75;;
31728;SDS011;18309;43.658;1.312;2023-02-21T12:32:20;21.38;;;8.05;;
31728;SDS011;18309;43.658;1.312;2023-02-21T12:38:09;13.25;;;7.65;;
31728;SDS011;18309;43.658;1.312;2023-02-21T12:48:45;16.25;;;8.57;;
31728;SDS011;18309;43.658;1.312;2023-02-21T12:51:20;17.83;;;8.60;;
31728;SDS011;18309;43.658;1.312;2023-02-21T12:53:59;16.00;;;7.28;;
31728;SDS011;18309;43.658;1.312;2023-02-21T12:56:27;22.02;;;7.90;;
31728;SDS011;18309;43.658;1.312;2023-02-21T12:59:43;20.95;;;7.38;;
31728;SDS011;18309;43.658;1.312;2023-02-21T13:02:25;16.73;;;7.07;;
31728;SDS011;18309;43.658;1.312;2023-02-21T13:05:13;15.10;;;7.90;;
31728;SDS011;18309;43.658;1.312;2023-02-21T13:07:52;19.52;;;8.30;;
31728;SDS011;18309;43.658;1.312;2023-02-21T13:13:31;19.17;;;8.52;;
31728;SDS011;18309;43.658;1.312;2023-02-21T13:15:59;17.27;;;7.28;;
31728;SDS011;18309;43.658;1.312;2023-02-21T13:20:59;18.65;;;8.00;;
31728;SDS011;18309;43.658;1.312;2023-02-21T13:29:32;19.33;;;7.13;;
31728;SDS011;18309;43.658;1.312;2023-02-21T13:32:11;13.15;;;7.22;;
31728;SDS011;18309;43.658;1.312;2023-02-21T13:34:55;17.38;;;6.90;;
31728;SDS011;18309;43.658;1.312;2023-02-21T13:37:28;17.42;;;8.00;;
31728;SDS011;18309;43.658;1.312;2023-02-21T13:40:04;19.30;;;7.75;;
31728;SDS011;18309;43.658;1.312;2023-02-21T13:42:39;24.13;;;7.82;;
31728;SDS011;18309;43.658;1.312;2023-02-21T14:07:13;18.60;;;7.38;;
31728;SDS011;18309;43.658;1.312;2023-02-21T14:09:39;17.35;;;7.30;;
31728;SDS011;18309;43.658;1.312;2023-02-21T14:12:06;21.70;;;6.75;;
31728;SDS011;18309;43.658;1.312;2023-02-21T14:14:37;14.50;;;7.18;;
31728;SDS011;18309;43.658;1.312;2023-02-21T14:17:05;15.82;;;6.57;;
31728;SDS011;18309;43.658;1.312;2023-02-21T14:22:28;14.48;;;6.25;;
31728;SDS011;18309;43.658;1.312;2023-02-21T14:25:05;16.45;;;6.30;;
31728;SDS011;18309;43.658;1.312;2023-02-21T14:27:42;11.80;;;6.20;;
31728;SDS011;18309;43.658;1.312;2023-02-21T14:32:35;14.48;;;6.10;;
31728;SDS011;18309;43.658;1.312;2023-02-21T14:37:44;20.15;;;6.00;;
31728;SDS011;18309;43.658;1.312;2023-02-21T14:45:48;14.43;;;5.97;;
31728;SDS011;18309;43.658;1.312;2023-02-21T14:51:33;13.07;;;6.30;;
31728;SDS011;18309;43.658;1.312;2023-02-21T15:08:53;26.77;;;6.75;;
31728;SDS011;18309;43.658;1.312;2023-02-21T15:11:26;15.98;;;6.30;;
31728;SDS011;18309;43.658;1.312;2023-02-21T15:14:11;14.35;;;5.75;;
31728;SDS011;18309;43.658;1.312;2023-02-21T15:16:41;18.50;;;5.82;;
31728;SDS011;18309;43.658;1.312;2023-02-21T15:19:29;16.88;;;6.07;;
31728;SDS011;18309;43.658;1.312;2023-02-21T15:27:55;20.02;;;6.32;;
31728;SDS011;18309;43.658;1.312;2023-02-21T15:32:53;15.85;;;6.85;;
31728;SDS011;18309;43.658;1.312;2023-02-21T15:35:22;21.02;;;6.65;;
31728;SDS011;18309;43.658;1.312;2023-02-21T15:37:53;16.77;;;7.00;;
31728;SDS011;18309;43.658;1.312;2023-02-21T15:40:22;12.27;;;6.32;;
31728;SDS011;18309;43.658;1.312;2023-02-21T15:42:50;20.00;;;7.13;;
31728;SDS011;18309;43.658;1.312;2023-02-21T15:45:21;19.98;;;7.57;;
31728;SDS011;18309;43.658;1.312;2023-02-21T15:47:51;19.35;;;7.55;;
31728;SDS011;18309;43.658;1.312;2023-02-21T15:55:39;23.38;;;8.40;;
31728;SDS011;18309;43.658;1.312;2023-02-21T16:00:38;18.88;;;7.50;;
31728;SDS011;18309;43.658;1.312;2023-02-21T16:06:36;16.27;;;7.60;;
31728;SDS011;18309;43.658;1.312;2023-02-21T16:09:32;24.77;;;8.80;;
31728;SDS011;18309;43.658;1.312;2023-02-21T16:11:54;22.80;;;9.07;;
31728;SDS011;18309;43.658;1.312;2023-02-21T16:14:43;25.13;;;8.30;;
31728;SDS011;18309;43.658;1.312;2023-02-21T16:17:26;19.10;;;8.32;;
31728;SDS011;18309;43.658;1.312;2023-02-21T16:19:57;23.13;;;8.95;;
31728;SDS011;18309;43.658;1.312;2023-02-21T16:22:50;19.88;;;8.32;;
31728;SDS011;18309;43.658;1.312;2023-02-21T16:25:52;21.25;;;8.15;;
31728;SDS011;18309;43.658;1.312;2023-02-21T16:28:42;21.63;;;8.10;;
31728;SDS011;18309;43.658;1.312;2023-02-21T16:31:13;19.67;;;8.55;;
31728;SDS011;18309;43.658;1.312;2023-02-21T16:33:51;16.33;;;8.00;;
31728;SDS011;18309;43.658;1.312;2023-02-21T16:36:18;18.52;;;8.32;;
31728;SDS011;18309;43.658;1.312;2023-02-21T16:38:49;23.75;;;9.20;;
31728;SDS011;18309;43.658;1.312;2023-02-21T16:41:15;22.52;;;9.25;;
31728;SDS011;18309;43.658;1.312;2023-02-21T16:43:41;21.80;;;8.70;;
31728;SDS011;18309;43.658;1.312;2023-02-21T16:46:06;17.23;;;8.30;;
31728;SDS011;18309;43.658;1.312;2023-02-21T16:48:32;25.75;;;9.25;;
31728;SDS011;18309;43.658;1.312;2023-02-21T16:51:06;16.27;;;8.77;;
31728;SDS011;18309;43.658;1.312;2023-02-21T16:53:37;22.77;;;8.50;;
31728;SDS011;18309;43.658;1.312;2023-02-21T16:56:03;16.58;;;8.52;;
31728;SDS011;18309;43.658;1.312;2023-02-21T16:58:31;19.67;;;8.15;;
31728;SDS011;18309;43.658;1.312;2023-02-21T17:01:05;29.30;;;10.27;;
31728;SDS011;18309;43.658;1.312;2023-02-21T17:03:35;27.40;;;10.15;;
31728;SDS011;18309;43.658;1.312;2023-02-21T17:06:01;22.65;;;10.25;;
31728;SDS011;18309;43.658;1.312;2023-02-21T17:08:27;24.05;;;8.45;;
31728;SDS011;18309;43.658;1.312;2023-02-21T17:10:53;26.02;;;9.80;;
31728;SDS011;18309;43.658;1.312;2023-02-21T17:13:20;21.48;;;9.40;;
31728;SDS011;18309;43.658;1.312;2023-02-21T17:15:46;24.52;;;9.30;;
31728;SDS011;18309;43.658;1.312;2023-02-21T17:18:12;27.98;;;10.70;;
31728;SDS011;18309;43.658;1.312;2023-02-21T17:20:37;29.48;;;11.43;;
31728;SDS011;18309;43.658;1.312;2023-02-21T17:23:03;18.00;;;9.52;;
31728;SDS011;18309;43.658;1.312;2023-02-21T17:25:29;29.15;;;10.50;;
31728;SDS011;18309;43.658;1.312;2023-02-21T17:27:55;28.85;;;10.77;;
31728;SDS011;18309;43.658;1.312;2023-02-21T17:30:21;26.58;;;11.60;;
31728;SDS011;18309;43.658;1.312;2023-02-21T17:32:48;26.30;;;10.63;;
31728;SDS011;18309;43.658;1.312;2023-02-21T17:35:16;23.25;;;10.50;;
31728;SDS011;18309;43.658;1.312;2023-02-21T17:37:43;21.67;;;10.25;;
31728;SDS011;18309;43.658;1.312;2023-02-21T17:40:11;24.02;;;10.82;;
31728;SDS011;18309;43.658;1.312;2023-02-21T17:42:38;24.38;;;10.63;;
31728;SDS011;18309;43.658;1.312;2023-02-21T17:45:04;25.52;;;9.98;;
31728;SDS011;18309;43.658;1.312;2023-02-21T17:47:30;17.77;;;8.85;;
31728;SDS011;18309;43.658;1.312;2023-02-21T17:49:56;23.25;;;9.00;;
31728;SDS011;18309;43.658;1.312;2023-02-21T17:52:24;23.55;;;10.60;;
31728;SDS011;18309;43.658;1.312;2023-02-21T17:54:50;19.88;;;10.10;;
31728;SDS011;18309;43.658;1.312;2023-02-21T17:57:16;22.15;;;10.10;;
31728;SDS011;18309;43.658;1.312;2023-02-21T17:59:42;24.10;;;10.82;;